Time;durP1;ratioP1;P1;durP2;ratioP2;P2;SDS_P1;SDS_P2;PMS_P1;PMS_P2;Temp;Humidity;BMP_temperature;BMP_pressure;BME280_temperature;BME280_humidity;BME280_pressure;Samples;Min_cycle;Max_cycle;Signal;HPM_P1;HPM_P2
2024/03/07 00:00:19;;;;;;;9.27;5.00;;;12.20;99.90;;;13.26;57.41;102056.16;6008523;22;98938;-36
2024/03/07 00:02:50;;;;;;;7.43;4.37;;;12.30;99.90;;;13.33;57.22;102058.63;5995818;22;98206;-36
2024/03/07 00:05:19;;;;;;;8.17;4.47;;;12.40;99.90;;;13.42;57.19;102054.00;6030402;22;97584;-36
2024/03/07 00:07:46;;;;;;;9.43;5.27;;;12.60;99.90;;;13.50;57.15;102044.09;6025909;22;102721;-37
2024/03/07 00:10:12;;;;;;;8.07;4.47;;;12.70;99.90;;;13.61;56.76;102042.03;5959392;22;97527;-37
2024/03/07 00:12:42;;;;;;;9.00;4.70;;;12.90;99.90;;;13.67;56.41;102041.84;5994722;22;99350;-35
2024/03/07 00:15:12;;;;;;;5.40;3.97;;;13.00;99.90;;;13.70;56.53;102047.94;5937364;22;97433;-37
2024/03/07 00:17:39;;;;;;;10.60;3.77;;;12.90;99.90;;;13.73;56.08;102052.28;6002891;22;104131;-37
2024/03/07 00:20:14;;;;;;;10.07;5.77;;;13.00;99.90;;;13.78;55.88;102050.41;6008238;22;102284;-39
2024/03/07 00:22:41;;;;;;;19.80;9.37;;;13.00;99.90;;;13.60;51.61;102054.41;6022027;22;104019;-35
2024/03/07 00:25:09;;;;;;;24.70;10.90;;;12.80;99.90;;;13.52;52.65;102047.56;5969044;22;98050;-36
2024/03/07 00:27:38;;;;;;;20.33;9.70;;;12.60;99.90;;;13.44;54.60;102055.69;5993548;22;103943;-37
2024/03/07 00:30:08;;;;;;;19.50;9.60;;;12.40;99.90;;;13.43;55.65;102048.66;6035512;22;102109;-35
2024/03/07 00:32:36;;;;;;;17.03;8.97;;;12.40;99.90;;;13.35;55.84;102051.50;5952687;22;98470;-35
2024/03/07 00:35:03;;;;;;;19.20;9.83;;;12.30;99.90;;;13.35;56.19;102048.00;6025857;22;97526;-34
2024/03/07 00:37:30;;;;;;;15.97;8.33;;;12.20;99.90;;;13.38;56.72;102056.72;6044701;22;103887;-34
2024/03/07 00:39:59;;;;;;;9.70;4.57;;;12.30;99.90;;;13.40;56.84;102054.91;6001105;22;97705;-35
2024/03/07 00:42:27;;;;;;;16.00;8.20;;;12.40;99.90;;;13.38;56.36;102051.44;6040917;22;98317;-37
2024/03/07 00:44:53;;;;;;;17.20;8.90;;;12.40;99.90;;;13.36;56.08;102052.38;5979715;22;97698;-36
2024/03/07 00:47:21;;;;;;;13.53;6.90;;;12.40;99.90;;;13.39;56.94;102042.56;6021355;22;108064;-37
2024/03/07 00:49:50;;;;;;;6.97;4.43;;;12.40;99.90;;;13.38;57.20;102046.13;5982225;22;118879;-34
2024/03/07 00:52:16;;;;;;;9.37;5.13;;;12.40;99.90;;;13.39;56.82;102042.56;5985317;22;98195;-36
2024/03/07 00:54:42;;;;;;;19.17;9.10;;;12.40;99.90;;;13.27;53.18;102045.53;5993651;22;117250;-36
2024/03/07 00:57:08;;;;;;;23.20;11.23;;;12.40;99.90;;;13.24;55.45;102039.44;5985543;22;106600;-36
2024/03/07 00:59:37;;;;;;;21.37;10.27;;;12.20;99.90;;;13.14;56.05;102036.09;6008662;22;102772;-37
2024/03/07 01:02:03;;;;;;;23.90;11.00;;;12.10;99.90;;;12.99;51.97;102041.78;5985475;22;98156;-36
2024/03/07 01:04:31;;;;;;;18.07;9.60;;;12.00;99.90;;;12.66;51.69;102038.13;6009253;22;97458;-36
2024/03/07 01:07:00;;;;;;;20.13;9.63;;;11.70;99.90;;;12.58;56.68;102035.63;6020441;22;99462;-35
2024/03/07 01:09:28;;;;;;;10.73;5.50;;;11.50;99.90;;;12.64;57.91;102035.53;6015710;22;99067;-36
2024/03/07 01:11:54;;;;;;;10.30;5.87;;;11.50;99.90;;;12.71;58.37;102037.09;5977922;22;98372;-37
2024/03/07 01:14:22;;;;;;;14.27;6.77;;;11.60;99.90;;;12.73;58.12;102035.31;6016837;22;97583;-37
2024/03/07 01:16:48;;;;;;;10.53;4.50;;;11.60;99.90;;;12.87;58.41;102036.75;6017303;22;98524;-37
2024/03/07 01:19:19;;;;;;;8.63;4.73;;;11.80;99.90;;;12.93;58.27;102032.19;6071675;22;104050;-37
2024/03/07 01:21:45;;;;;;;12.07;6.67;;;12.00;99.90;;;13.02;57.96;102031.13;6018984;22;97472;-35
2024/03/07 01:24:11;;;;;;;8.13;4.13;;;12.10;99.90;;;13.10;57.55;102032.66;6015457;22;98246;-36
2024/03/07 01:26:36;;;;;;;14.80;7.20;;;12.20;99.90;;;13.15;56.97;102027.25;6037642;22;99800;-36
2024/03/07 01:29:02;;;;;;;12.27;6.07;;;12.30;99.90;;;13.19;56.94;102028.09;6041797;22;97695;-37
2024/03/07 01:31:31;;;;;;;6.30;3.80;;;12.30;99.90;;;13.25;57.52;102028.78;6013230;22;98660;-37
2024/03/07 01:33:57;;;;;;;6.60;4.03;;;12.40;99.90;;;13.34;56.98;102028.56;6012108;22;117782;-37
2024/03/07 01:36:23;;;;;;;7.10;4.23;;;12.50;99.90;;;13.43;57.04;102021.28;6017795;22;98447;-38
2024/03/07 01:38:48;;;;;;;5.97;3.90;;;12.70;99.90;;;13.48;56.45;102016.75;5988294;22;118713;-37
2024/03/07 01:41:14;;;;;;;6.00;3.70;;;12.70;99.90;;;13.52;56.60;102015.75;6074678;22;105966;-37
2024/03/07 01:43:41;;;;;;;7.03;3.87;;;12.70;99.90;;;13.55;56.47;102016.53;6048040;22;98236;-38
2024/03/07 01:46:08;;;;;;;5.50;4.00;;;12.80;99.90;;;13.54;56.20;102006.84;6042942;22;99335;-37
2024/03/07 01:48:34;;;;;;;7.17;3.80;;;12.70;99.90;;;13.52;56.26;102005.16;5943610;22;105898;-36
2024/03/07 01:51:00;;;;;;;11.20;5.57;;;12.70;99.90;;;13.47;54.70;102007.94;6001788;22;116034;-37
2024/03/07 01:53:28;;;;;;;8.80;4.70;;;12.50;99.90;;;13.48;56.39;102006.16;6007970;22;107559;-36
2024/03/07 01:55:54;;;;;;;11.10;6.43;;;12.50;99.90;;;13.39;54.80;102002.81;6030728;22;100138;-37
2024/03/07 01:58:21;;;;;;;20.03;9.53;;;12.40;99.90;;;13.32;51.54;102003.91;6022118;22;105129;-37
2024/03/07 02:00:47;;;;;;;17.13;8.37;;;12.40;99.90;;;13.24;55.54;102000.56;6013641;22;97638;-36
2024/03/07 02:03:14;;;;;;;8.87;5.00;;;12.20;99.90;;;13.24;56.63;101989.09;6047751;22;98197;-35
2024/03/07 02:05:41;;;;;;;8.80;5.23;;;12.10;99.90;;;13.28;56.85;101981.00;6103264;22;102361;-36
2024/03/07 02:08:07;;;;;;;17.77;7.83;;;12.30;99.90;;;13.26;55.68;101982.84;6112531;22;103025;-37
2024/03/07 02:10:32;;;;;;;7.40;3.77;;;12.20;99.90;;;13.26;56.71;101982.84;6101660;22;98728;-37
2024/03/07 02:12:58;;;;;;;13.17;7.53;;;12.20;99.90;;;13.17;53.55;101977.75;6123833;22;103316;-39
2024/03/07 02:15:24;;;;;;;15.67;7.37;;;12.20;99.90;;;13.23;56.23;101977.63;6100293;22;98925;-35
2024/03/07 02:17:50;;;;;;;6.13;3.80;;;12.30;99.90;;;13.22;56.96;101973.22;6107520;22;115933;-35
2024/03/07 02:20:16;;;;;;;8.00;3.97;;;12.30;99.90;;;13.27;56.92;101978.41;6113958;22;108716;-36
2024/03/07 02:22:42;;;;;;;7.80;3.53;;;12.30;99.90;;;13.26;57.01;101966.94;6096642;22;97371;-35
2024/03/07 02:25:11;;;;;;;5.93;3.33;;;12.30;99.90;;;13.30;56.99;101968.59;6097895;22;98610;-36
2024/03/07 02:27:37;;;;;;;9.03;4.37;;;12.40;99.90;;;13.31;56.20;101967.72;6110262;22;103920;-36
2024/03/07 02:30:05;;;;;;;10.23;4.97;;;12.40;99.90;;;13.36;56.80;101968.44;6106670;22;117900;-35
2024/03/07 02:32:31;;;;;;;11.40;5.50;;;12.50;99.90;;;13.37;56.42;101959.59;6111187;22;97473;-35
2024/03/07 02:34:57;;;;;;;7.37;4.43;;;12.50;99.90;;;13.39;56.46;101962.19;6115612;22;100521;-35
2024/03/07 02:37:23;;;;;;;15.83;7.57;;;12.50;99.90;;;13.39;55.79;101960.41;6107977;22;126851;-35
2024/03/07 02:39:49;;;;;;;6.43;3.77;;;12.50;99.90;;;13.44;56.42;101960.28;6108650;22;119060;-38
2024/03/07 02:42:18;;;;;;;8.20;4.97;;;12.60;99.90;;;13.44;56.46;101959.41;6111339;22;97356;-35
2024/03/07 02:44:44;;;;;;;11.93;6.33;;;12.60;99.90;;;13.37;55.63;101951.63;6111740;22;117941;-36
2024/03/07 02:47:10;;;;;;;7.73;4.03;;;12.40;99.90;;;13.29;55.78;101955.38;6113963;22;97508;-36
2024/03/07 02:49:36;;;;;;;14.90;8.07;;;12.30;99.90;;;13.23;56.09;101959.06;6085980;22;97354;-37
2024/03/07 02:52:01;;;;;;;13.07;6.43;;;12.10;99.90;;;13.17;54.69;101953.91;6104044;22;109014;-37
2024/03/07 02:54:27;;;;;;;7.23;4.07;;;12.20;99.90;;;13.19;57.00;101960.06;6089188;22;104929;-35
2024/03/07 02:56:53;;;;;;;9.97;5.67;;;12.10;99.90;;;13.06;54.61;101948.88;6101008;22;101602;-36
2024/03/07 02:59:19;;;;;;;18.87;8.57;;;12.00;99.90;;;12.99;54.37;101951.72;6109475;22;114558;-37
2024/03/07 03:01:44;;;;;;;12.03;6.80;;;11.90;99.90;;;12.99;56.95;101952.56;6100638;22;113033;-37
2024/03/07 03:04:13;;;;;;;15.37;8.40;;;11.90;99.90;;;12.87;55.34;101952.00;6094732;22;105773;-35
2024/03/07 03:06:38;;;;;;;18.50;9.70;;;11.80;99.90;;;12.62;50.04;101952.63;6106414;22;101405;-37
2024/03/07 03:09:13;;;;;;;9.77;4.63;;;11.60;99.90;;;12.70;57.11;101950.66;6090302;22;100179;-34
2024/03/07 03:11:39;;;;;;;14.20;7.00;;;11.60;99.90;;;12.69;55.14;101955.97;6082433;22;98386;-37
2024/03/07 03:14:05;;;;;;;6.17;3.63;;;11.60;99.90;;;12.80;58.12;101951.31;6108125;22;99214;-37
2024/03/07 03:16:31;;;;;;;10.43;5.83;;;11.70;99.90;;;12.84;57.68;101937.06;6110055;22;100849;-37
2024/03/07 03:18:57;;;;;;;8.10;4.50;;;11.80;99.90;;;12.91;57.68;101943.09;6107465;22;104796;-34
2024/03/07 03:21:23;;;;;;;8.47;4.40;;;11.90;99.90;;;12.98;57.73;101942.03;6111406;22;97491;-35
2024/03/07 03:23:49;;;;;;;8.93;4.90;;;12.00;99.90;;;13.00;57.53;101937.56;6111627;22;100169;-35
2024/03/07 03:26:15;;;;;;;16.10;7.33;;;12.00;99.90;;;12.99;56.93;101935.81;6049846;22;110871;-36
2024/03/07 03:28:41;;;;;;;14.00;7.60;;;12.00;99.90;;;12.88;55.50;101937.88;6064343;22;97434;-37
2024/03/07 03:31:08;;;;;;;21.63;9.30;;;11.80;99.90;;;12.87;53.74;101930.81;6094833;22;110045;-35
2024/03/07 03:33:35;;;;;;;10.47;5.10;;;11.70;99.90;;;12.94;57.45;101927.13;6106909;22;99480;-38
2024/03/07 03:36:01;;;;;;;5.93;4.00;;;11.80;99.90;;;12.98;57.65;101936.72;6092076;22;98193;-36
2024/03/07 03:38:26;;;;;;;13.93;6.97;;;11.90;99.90;;;12.97;56.25;101930.56;6038388;22;115228;-37
2024/03/07 03:40:52;;;;;;;9.60;4.73;;;11.90;99.90;;;12.98;56.96;101926.13;6067357;22;97767;-34
2024/03/07 03:43:18;;;;;;;7.43;4.13;;;11.90;99.90;;;12.99;57.29;101930.53;6094810;22;101343;-34
2024/03/07 03:45:47;;;;;;;11.80;5.93;;;11.90;99.90;;;12.98;56.34;101934.94;6084994;22;98960;-35
2024/03/07 03:48:13;;;;;;;7.97;4.57;;;11.90;99.90;;;12.96;57.40;101935.91;6117831;22;97595;-34
2024/03/07 03:50:39;;;;;;;6.67;4.27;;;11.90;99.90;;;13.04;57.10;101939.25;6108306;22;97256;-34
2024/03/07 03:53:05;;;;;;;8.83;3.50;;;12.00;99.90;;;13.06;57.11;101929.47;6099031;22;127313;-34
2024/03/07 03:55:32;;;;;;;5.37;3.37;;;12.10;99.90;;;13.14;56.80;101935.41;6109743;22;99232;-36
2024/03/07 03:57:58;;;;;;;8.00;4.63;;;12.30;99.90;;;13.18;56.58;101933.59;6098084;22;97490;-35
2024/03/07 04:00:24;;;;;;;10.83;5.97;;;12.30;99.90;;;13.06;55.31;101921.53;6092814;22;97960;-36
2024/03/07 04:02:49;;;;;;;13.40;6.00;;;12.10;99.90;;;13.00;56.09;101933.13;6086718;22;98012;-37
2024/03/07 04:05:18;;;;;;;14.97;8.03;;;11.90;99.90;;;12.90;55.00;101929.00;6072055;22;125174;-34
2024/03/07 04:07:44;;;;;;;8.73;4.93;;;11.70;99.90;;;12.91;57.11;101929.84;6089317;22;97505;-36
2024/03/07 04:10:11;;;;;;;7.60;4.53;;;11.70;99.90;;;12.94;57.26;101929.78;6063598;22;97352;-37
2024/03/07 04:12:40;;;;;;;6.90;4.20;;;11.70;99.90;;;12.98;57.17;101934.94;6095288;22;105955;-36
2024/03/07 04:15:09;;;;;;;7.17;4.10;;;11.90;99.90;;;12.90;57.36;101925.47;6081086;22;97479;-35
2024/03/07 04:17:35;;;;;;;8.20;4.70;;;11.80;99.90;;;12.90;57.17;101925.47;6101683;22;99325;-36
2024/03/07 04:20:14;;;;;;;16.63;8.30;;;11.80;99.90;;;12.87;56.16;101925.53;6076754;22;97424;-36
2024/03/07 04:22:39;;;;;;;6.30;3.73;;;11.70;99.90;;;12.80;57.18;101922.19;6089742;22;102957;-34
2024/03/07 04:25:07;;;;;;;7.20;3.83;;;11.60;99.90;;;12.88;57.57;101916.72;6104590;22;120768;-35
2024/03/07 04:27:36;;;;;;;8.87;4.70;;;11.80;99.90;;;12.84;57.46;101915.00;6066950;22;100192;-36
2024/03/07 04:30:07;;;;;;;10.53;5.33;;;11.70;99.90;;;12.86;57.08;101919.38;6113279;22;98322;-36
2024/03/07 04:32:37;;;;;;;13.27;6.37;;;11.80;99.90;;;12.71;56.48;101919.75;6109668;22;100603;-35
2024/03/07 04:35:07;;;;;;;6.93;3.87;;;11.50;99.90;;;12.83;57.79;101919.44;6101733;22;98954;-33
2024/03/07 04:37:37;;;;;;;6.03;3.67;;;11.70;99.90;;;12.96;57.48;101918.22;6079196;22;97235;-36
2024/03/07 04:40:15;;;;;;;5.60;3.80;;;12.10;99.90;;;13.09;57.03;101917.00;6115893;22;97321;-36
2024/03/07 04:42:44;;;;;;;6.17;3.27;;;12.40;99.90;;;13.33;56.30;101915.53;6074915;22;106081;-36
2024/03/07 04:45:12;;;;;;;7.70;4.23;;;12.80;99.90;;;13.44;55.85;101911.69;6112945;22;105196;-36
2024/03/07 04:47:41;;;;;;;9.67;5.00;;;13.00;99.90;;;13.49;54.33;101913.31;6126271;22;97789;-35
2024/03/07 04:50:10;;;;;;;18.00;7.93;;;13.00;99.90;;;13.38;54.18;101924.22;6106918;22;97577;-37
2024/03/07 04:52:37;;;;;;;17.17;7.97;;;12.70;99.90;;;13.33;52.87;101917.31;6032778;22;99053;-36
2024/03/07 04:55:10;;;;;;;8.77;4.30;;;12.50;99.90;;;13.23;54.71;101924.63;6078482;22;98954;-35
2024/03/07 04:57:41;;;;;;;18.50;8.57;;;12.30;99.90;;;13.11;53.79;101922.25;6034439;22;97676;-37
2024/03/07 05:00:13;;;;;;;18.20;8.83;;;12.10;99.90;;;12.97;54.90;101921.75;6097724;22;102421;-36
2024/03/07 05:02:41;;;;;;;6.63;3.93;;;11.90;99.90;;;12.89;55.75;101923.75;6102911;22;104494;-37
2024/03/07 05:05:07;;;;;;;21.23;9.43;;;11.70;99.90;;;12.57;49.47;101928.03;6107344;22;98885;-36
2024/03/07 05:07:33;;;;;;;8.20;5.33;;;11.50;99.90;;;12.56;56.94;101923.63;6075689;22;97407;-35
2024/03/07 05:10:00;;;;;;;13.97;7.97;;;11.30;99.90;;;12.46;52.71;101928.28;6088478;22;97807;-35
2024/03/07 05:12:26;;;;;;;18.17;9.43;;;11.30;99.90;;;12.33;51.73;101929.47;6065024;22;99594;-35
2024/03/07 05:14:53;;;;;;;13.70;7.53;;;11.20;99.90;;;12.41;55.78;101937.22;6107035;22;120432;-36
2024/03/07 05:17:19;;;;;;;15.80;8.37;;;11.20;99.90;;;12.33;53.78;101928.59;6106851;22;97430;-34
2024/03/07 05:19:45;;;;;;;17.43;9.07;;;11.20;99.90;;;12.26;52.40;101932.28;6123061;22;97150;-35
2024/03/07 05:22:16;;;;;;;15.63;8.23;;;11.10;99.90;;;12.18;50.58;101922.75;6108954;22;101211;-39
2024/03/07 05:24:44;;;;;;;14.50;7.67;;;11.20;99.90;;;12.12;53.12;101929.94;6109614;22;103379;-36
2024/03/07 05:27:13;;;;;;;17.70;8.67;;;11.00;99.90;;;11.99;51.38;101929.34;6096116;22;97544;-46
2024/03/07 05:29:39;;;;;;;14.20;6.07;;;10.90;99.90;;;11.95;58.08;101932.94;6130399;22;97459;-35
2024/03/07 05:32:25;;;;;;;19.10;9.37;;;10.80;99.90;;;11.80;55.69;101922.69;6077440;22;99286;-35
2024/03/07 05:34:55;;;;;;;10.57;5.17;;;10.70;99.90;;;11.98;58.79;101927.59;6103605;22;103154;-36
2024/03/07 05:37:21;;;;;;;7.03;4.20;;;10.70;99.90;;;12.07;59.40;101937.13;6107798;22;97024;-36
2024/03/07 05:39:51;;;;;;;8.27;4.37;;;10.80;99.90;;;12.15;59.05;101935.16;6113186;22;98101;-36
2024/03/07 05:42:17;;;;;;;7.13;4.30;;;11.00;99.90;;;12.12;58.50;101928.16;6102794;22;103099;-34
2024/03/07 05:44:44;;;;;;;16.23;7.60;;;11.00;99.90;;;12.10;55.86;101929.97;6089272;22;124708;-37
2024/03/07 05:47:10;;;;;;;17.73;8.57;;;10.90;99.90;;;12.03;53.94;101925.75;6045248;22;98243;-34
2024/03/07 05:49:39;;;;;;;15.50;8.53;;;10.80;99.90;;;12.04;54.89;101922.19;6108067;22;101959;-37
2024/03/07 05:52:08;;;;;;;16.50;8.03;;;10.80;99.90;;;12.09;58.27;101925.59;6080378;22;98064;-36
2024/03/07 05:54:35;;;;;;;21.27;9.47;;;10.80;99.90;;;11.91;51.08;101931.28;6110328;22;97507;-39
2024/03/07 05:57:02;;;;;;;18.23;8.63;;;10.70;99.90;;;11.89;52.99;101925.16;6054890;22;97334;-35
2024/03/07 05:59:37;;;;;;;5.87;4.10;;;10.70;99.90;;;12.06;58.59;101925.66;6095678;22;102207;-38
2024/03/07 06:02:02;;;;;;;16.80;8.07;;;10.80;99.90;;;12.16;58.18;101932.50;6098935;22;98379;-36
2024/03/07 06:04:29;;;;;;;7.40;4.33;;;10.90;99.90;;;12.26;58.81;101921.69;6110409;22;98018;-35
2024/03/07 06:06:55;;;;;;;7.47;4.23;;;11.00;99.90;;;12.38;58.45;101921.44;6098499;22;97391;-39
2024/03/07 06:09:21;;;;;;;13.83;6.73;;;11.30;99.90;;;12.44;57.62;101922.16;6126881;22;97485;-36
2024/03/07 06:11:50;;;;;;;5.83;3.90;;;11.40;99.90;;;12.53;58.05;101921.06;6113382;22;99274;-36
2024/03/07 06:14:19;;;;;;;11.77;5.77;;;11.50;99.90;;;12.55;56.88;101915.72;6117484;22;103395;-35
2024/03/07 06:16:45;;;;;;;5.20;3.27;;;11.50;99.90;;;12.65;57.57;101925.19;6097005;22;97167;-36
2024/03/07 06:19:11;;;;;;;5.90;3.83;;;11.60;99.90;;;12.78;57.30;101922.22;6113782;22;98769;-35
2024/03/07 06:21:42;;;;;;;6.33;3.80;;;11.90;99.90;;;12.95;56.86;101924.44;6036828;22;98420;-39
2024/03/07 06:24:08;;;;;;;4.37;3.20;;;12.30;99.90;;;13.20;56.10;101924.72;6097488;22;101530;-36
2024/03/07 06:29:18;;;;;;;6.80;4.20;;;13.30;99.90;;;13.94;53.69;101929.69;6110624;22;97431;-36
2024/03/07 06:31:48;;;;;;;5.80;3.73;;;13.80;99.90;;;14.22;53.23;101919.13;6077275;22;102318;-36
2024/03/07 06:34:14;;;;;;;6.07;4.17;;;14.20;99.90;;;14.47;52.31;101924.56;6076350;22;98014;-42
2024/03/07 06:36:40;;;;;;;6.77;4.07;;;14.60;99.90;;;14.68;51.72;101919.47;6094919;22;97512;-35
2024/03/07 06:39:07;;;;;;;6.30;4.17;;;14.80;99.90;;;14.86;50.91;101921.50;6111835;22;101532;-35
2024/03/07 06:41:35;;;;;;;8.17;3.70;;;15.00;99.90;;;15.01;50.41;101921.00;6113895;22;98482;-37
2024/03/07 06:44:01;;;;;;;7.37;3.77;;;15.20;99.90;;;15.13;49.97;101925.91;6114725;22;124021;-35
2024/03/07 06:46:28;;;;;;;6.23;4.27;;;15.30;99.90;;;15.24;49.70;101916.69;6067954;22;97944;-37
2024/03/07 06:48:54;;;;;;;6.80;4.00;;;15.50;99.90;;;15.35;49.25;101925.16;6029623;22;97437;-37
2024/03/07 06:51:19;;;;;;;5.73;4.00;;;15.60;99.90;;;15.42;49.19;101919.56;6110261;22;99807;-35
2024/03/07 06:53:50;;;;;;;7.57;4.13;;;15.60;99.90;;;15.49;49.00;101922.88;6083954;22;98970;-36
2024/03/07 06:56:16;;;;;;;6.30;3.73;;;15.70;99.90;;;15.50;48.68;101913.97;6113196;22;97085;-38
2024/03/07 06:58:42;;;;;;;6.63;4.17;;;15.70;99.90;;;15.50;48.67;101923.75;6102041;22;97535;-35
2024/03/07 07:01:12;;;;;;;5.63;3.50;;;15.70;99.90;;;15.53;48.46;101920.97;6095679;22;102215;-36
2024/03/07 07:03:38;;;;;;;5.40;3.40;;;15.70;99.90;;;15.53;48.47;101923.63;6073638;22;98242;-35
2024/03/07 07:06:07;;;;;;;6.37;3.27;;;15.60;99.90;;;15.48;48.39;101923.81;6098389;22;97398;-41
2024/03/07 07:08:33;;;;;;;6.97;4.43;;;15.60;99.90;;;15.52;48.70;101922.75;6102361;22;97467;-36
2024/03/07 07:10:59;;;;;;;5.30;3.40;;;15.60;99.90;;;15.53;48.53;101929.81;6101237;22;120655;-35
2024/03/07 07:13:28;;;;;;;7.10;3.73;;;15.60;99.90;;;15.58;48.48;101925.19;6086978;22;98249;-37
2024/03/07 07:15:53;;;;;;;7.57;4.33;;;15.70;99.90;;;15.61;48.57;101927.75;6111315;22;117103;-38
2024/03/07 07:18:19;;;;;;;6.77;3.77;;;15.80;99.90;;;15.64;48.58;101924.16;6025386;22;116876;-36
2024/03/07 07:20:47;;;;;;;6.40;4.00;;;15.90;99.90;;;15.69;48.47;101925.69;6092945;22;98393;-38
2024/03/07 07:23:13;;;;;;;6.43;4.10;;;16.00;99.90;;;15.69;48.80;101930.16;6068957;22;100342;-35
2024/03/07 07:25:44;;;;;;;7.63;4.37;;;16.00;99.90;;;15.70;48.69;101931.88;6092380;22;116692;-36
2024/03/07 07:28:11;;;;;;;6.33;4.53;;;16.00;99.90;;;15.73;47.89;101932.63;6098579;22;97171;-36
2024/03/07 07:30:37;;;;;;;5.40;4.00;;;16.10;99.90;;;15.79;47.96;101928.03;6105027;22;99413;-37
2024/03/07 07:33:03;;;;;;;10.00;4.43;;;16.10;99.90;;;15.85;47.78;101927.78;6094576;22;97574;-36
2024/03/07 07:35:29;;;;;;;5.57;3.33;;;16.10;99.90;;;15.86;47.51;101926.84;6107657;22;97552;-36
2024/03/07 07:37:55;;;;;;;6.40;4.30;;;16.10;99.90;;;15.81;47.97;101923.50;6058646;22;103625;-35
2024/03/07 07:40:24;;;;;;;8.43;5.07;;;16.20;99.90;;;15.80;47.91;101921.78;6118774;22;97891;-37
2024/03/07 07:42:52;;;;;;;8.33;4.73;;;16.20;99.90;;;15.85;47.65;101925.13;6075543;22;103094;-38
2024/03/07 07:45:19;;;;;;;5.10;3.83;;;16.20;99.90;;;15.82;47.82;101918.13;6092966;22;97324;-37
2024/03/07 07:47:48;;;;;;;8.80;4.97;;;16.20;99.90;;;15.84;47.38;101923.38;6064446;22;97513;-38
2024/03/07 07:50:23;;;;;;;8.13;4.43;;;16.20;99.90;;;15.83;48.18;101911.88;5994833;22;98776;-36
2024/03/07 07:52:54;;;;;;;8.07;5.03;;;16.30;99.90;;;15.84;48.02;101918.94;5873623;22;106516;-36
2024/03/07 07:55:24;;;;;;;7.77;5.10;;;16.20;99.90;;;15.88;47.40;101919.69;6020871;22;97646;-37
2024/03/07 07:57:55;;;;;;;6.03;4.00;;;16.20;99.90;;;15.90;47.18;101918.69;5994527;22;97965;-35
2024/03/07 08:00:28;;;;;;;7.50;4.20;;;16.30;99.90;;;15.84;47.58;101918.06;5998498;22;103130;-37
2024/03/07 08:03:10;;;;;;;7.50;4.57;;;16.30;99.90;;;15.81;47.43;101923.50;6060938;22;102248;-37
2024/03/07 08:05:37;;;;;;;10.97;5.00;;;16.20;99.90;;;15.84;48.11;101912.75;6022442;22;97487;-38
2024/03/07 08:08:06;;;;;;;8.80;5.10;;;16.20;99.90;;;15.86;47.64;101921.53;6022021;22;97567;-35
2024/03/07 08:10:34;;;;;;;8.07;4.67;;;16.20;99.90;;;15.89;47.15;101921.41;5914139;22;105260;-35
2024/03/07 08:13:03;;;;;;;7.63;4.37;;;16.30;99.90;;;15.92;46.72;101918.66;5912786;22;104933;-36
2024/03/07 08:15:30;;;;;;;9.17;4.93;;;16.30;99.90;;;15.91;47.42;101915.13;6023120;22;98010;-36
2024/03/07 08:17:59;;;;;;;7.93;5.00;;;16.30;99.90;;;15.92;47.09;101916.88;6015461;22;98613;-36
2024/03/07 08:20:28;;;;;;;8.30;4.37;;;16.30;99.90;;;15.90;46.93;101912.50;6016108;22;99021;-37
2024/03/07 08:22:58;;;;;;;7.83;4.80;;;16.30;99.90;;;15.88;47.30;101919.69;6034034;22;102183;-35
2024/03/07 08:25:26;;;;;;;9.20;5.00;;;16.30;99.90;;;15.88;46.84;101919.69;6047635;22;97096;-34
2024/03/07 08:27:57;;;;;;;6.27;4.03;;;16.30;99.90;;;15.92;46.74;101910.69;6024849;22;98660;-35
2024/03/07 08:30:24;;;;;;;7.43;4.43;;;16.30;99.90;;;15.87;47.28;101901.97;5997969;22;102225;-35
2024/03/07 08:32:53;;;;;;;7.27;4.30;;;16.30;99.90;;;15.99;46.40;101906.84;6050197;22;103157;-38
2024/03/07 08:35:19;;;;;;;10.47;5.43;;;16.30;99.90;;;16.02;45.82;101902.25;5995978;22;97319;-35
2024/03/07 08:37:53;;;;;;;6.60;3.70;;;16.30;99.90;;;15.96;46.31;101913.16;5992908;22;109431;-37
2024/03/07 08:40:20;;;;;;;7.47;4.47;;;16.30;99.90;;;15.93;46.48;101907.09;6003080;22;103260;-36
2024/03/07 08:42:50;;;;;;;8.43;4.17;;;16.30;99.90;;;15.96;46.41;101917.63;6032093;22;97846;-34
2024/03/07 08:45:18;;;;;;;5.90;4.07;;;16.30;99.90;;;15.95;46.19;101910.56;6034823;22;97731;-37
2024/03/07 08:47:46;;;;;;;9.00;4.47;;;16.30;99.90;;;15.98;46.41;101910.44;6017401;22;97737;-39
2024/03/07 08:50:15;;;;;;;6.53;4.17;;;16.30;99.90;;;15.94;45.04;101903.50;6028149;22;97407;-36
2024/03/07 08:52:42;;;;;;;7.70;4.30;;;16.30;99.90;;;15.88;46.43;101903.72;5998210;22;98965;-40
2024/03/07 08:55:12;;;;;;;8.07;4.80;;;16.20;99.90;;;15.85;46.51;101893.19;6040869;22;97906;-36
2024/03/07 08:57:39;;;;;;;6.63;4.20;;;16.20;99.90;;;15.90;46.16;101885.91;6019407;22;97704;-35
2024/03/07 09:00:09;;;;;;;5.40;3.80;;;16.20;99.90;;;15.90;46.49;101888.56;6006753;22;97849;-37
2024/03/07 09:02:35;;;;;;;8.13;5.03;;;16.20;99.90;;;15.87;46.19;101888.69;5994149;22;97989;-37
2024/03/07 09:05:06;;;;;;;6.93;3.70;;;16.20;99.90;;;15.88;46.97;101887.75;5935918;22;98469;-36
2024/03/07 09:07:35;;;;;;;11.50;6.60;;;16.30;99.90;;;15.77;43.09;101890.84;6008466;22;97451;-38
2024/03/07 09:10:01;;;;;;;7.07;4.50;;;16.10;99.90;;;15.81;45.19;101888.94;6046605;22;98799;-37
2024/03/07 09:12:27;;;;;;;7.33;4.33;;;16.10;99.90;;;15.70;46.23;101890.19;6023085;22;98251;-35
2024/03/07 09:14:53;;;;;;;13.20;6.90;;;15.90;99.90;;;15.71;41.38;101888.41;6008340;22;98025;-35
2024/03/07 09:17:20;;;;;;;6.57;3.80;;;16.00;99.90;;;15.70;46.67;101892.84;5996626;22;98904;-36
2024/03/07 09:19:49;;;;;;;6.50;3.77;;;16.00;99.90;;;15.74;46.96;101885.63;6005392;22;121977;-34
2024/03/07 09:22:15;;;;;;;8.13;4.70;;;16.00;99.90;;;15.74;46.79;101875.84;6041370;22;100328;-36
2024/03/07 09:24:41;;;;;;;9.67;5.93;;;16.10;99.90;;;15.77;43.32;101891.72;6025190;22;97528;-36
2024/03/07 09:27:08;;;;;;;8.60;5.17;;;16.10;99.90;;;15.77;45.68;101897.03;6058409;22;98075;-36
2024/03/07 09:29:33;;;;;;;5.73;3.80;;;16.00;99.90;;;15.77;46.96;101891.72;6046360;22;101709;-37
2024/03/07 09:31:59;;;;;;;5.77;3.83;;;16.10;99.90;;;15.83;46.78;101895.06;6008874;22;104515;-37
2024/03/07 09:34:25;;;;;;;6.73;3.83;;;16.10;99.90;;;15.81;46.65;101886.25;6048460;22;110280;-36
2024/03/07 09:36:52;;;;;;;11.20;4.87;;;16.20;99.90;;;15.81;46.50;101880.94;6015322;22;97540;-36
2024/03/07 09:39:18;;;;;;;8.13;4.43;;;16.20;99.90;;;15.80;46.16;101879.22;6023046;22;99478;-36
2024/03/07 09:41:45;;;;;;;6.53;3.87;;;16.20;99.90;;;15.79;47.18;101888.13;5982307;22;98741;-37
2024/03/07 09:44:21;;;;;;;10.03;4.87;;;16.20;99.90;;;15.86;45.62;101884.28;5920738;22;99375;-36
2024/03/07 09:46:48;;;;;;;6.33;3.70;;;16.20;99.90;;;15.87;45.67;101884.22;5977573;22;97500;-38
2024/03/07 09:49:15;;;;;;;6.80;3.80;;;16.20;99.90;;;15.93;45.62;101885.81;6067402;22;98464;-36
2024/03/07 09:51:43;;;;;;;7.57;4.37;;;16.30;99.90;;;15.74;46.38;101881.16;6016060;22;99274;-35
2024/03/07 09:54:09;;;;;;;7.63;4.53;;;16.20;99.90;;;15.69;46.37;101888.47;6008939;22;98624;-36
2024/03/07 09:56:39;;;;;;;10.50;4.43;;;16.20;99.90;;;15.64;46.74;101886.91;6029918;22;100275;-37
2024/03/07 09:59:05;;;;;;;5.57;3.83;;;16.10;99.90;;;15.76;46.11;101879.31;5987591;22;99818;-37
2024/03/07 10:01:35;;;;;;;8.37;4.53;;;16.20;99.90;;;15.83;40.78;101881.75;5987848;22;100614;-34
2024/03/07 10:04:11;;;;;;;7.07;4.20;;;16.20;99.90;;;15.86;45.15;101884.28;5994558;22;98814;-34
2024/03/07 10:06:41;;;;;;;10.30;4.80;;;16.20;99.90;;;15.72;46.30;101883.00;5975035;22;98365;-36
2024/03/07 10:09:14;;;;;;;7.97;4.37;;;16.20;99.90;;;15.74;46.52;101886.47;6042681;22;99510;-35
2024/03/07 10:11:43;;;;;;;8.23;4.57;;;16.20;99.90;;;15.75;45.67;101896.19;6007877;22;103906;-38